createdAt,value
2018-11-29T00:00:23.184Z,-0.40
2018-11-29T00:02:51.452Z,-0.50
2018-11-29T00:05:19.560Z,-0.40
2018-11-29T00:07:47.674Z,-0.40
2018-11-29T00:10:15.878Z,-0.30
2018-11-29T00:12:43.969Z,-0.30
2018-11-29T00:15:12.997Z,-0.30
2018-11-29T00:17:41.106Z,-0.30
2018-11-29T00:20:11.504Z,-0.30
2018-11-29T00:22:39.615Z,-0.30
2018-11-29T00:25:08.910Z,-0.30
2018-11-29T00:27:37.022Z,-0.30
2018-11-29T00:30:10.381Z,-0.30
2018-11-29T00:32:38.693Z,-0.40
2018-11-29T00:35:08.265Z,-0.30
2018-11-29T00:37:36.375Z,-0.30
2018-11-29T00:40:05.958Z,-0.40
2018-11-29T00:42:34.448Z,-0.40
2018-11-29T00:45:02.564Z,-0.40
2018-11-29T00:47:30.682Z,-0.40
2018-11-29T00:49:58.763Z,-0.40
2018-11-29T00:52:26.820Z,-0.40
2018-11-29T00:54:55.270Z,-0.40
2018-11-29T00:57:23.455Z,-0.40
2018-11-29T00:59:51.550Z,-0.50
2018-11-29T01:02:19.671Z,-0.50
2018-11-29T01:04:47.766Z,-0.50
2018-11-29T01:07:16.023Z,-0.50
2018-11-29T01:09:44.148Z,-0.50
2018-11-29T01:12:12.634Z,-0.60
2018-11-29T01:14:40.769Z,-0.60
2018-11-29T01:17:08.874Z,-0.60
2018-11-29T01:19:36.986Z,-0.50
2018-11-29T01:22:05.465Z,-0.60
2018-11-29T01:24:33.594Z,-0.50
2018-11-29T01:27:02.013Z,-0.50
2018-11-29T01:29:30.114Z,-0.60
2018-11-29T01:31:58.262Z,-0.60
2018-11-29T01:34:26.372Z,-0.50
2018-11-29T01:36:54.581Z,-0.50
2018-11-29T01:39:22.677Z,-0.60
2018-11-29T01:41:50.785Z,-0.60
2018-11-29T01:44:19.218Z,-0.60
2018-11-29T01:46:47.369Z,-0.60
2018-11-29T01:49:15.461Z,-0.60
2018-11-29T01:51:43.571Z,-0.60
2018-11-29T01:54:11.681Z,-0.60
2018-11-29T01:56:39.777Z,-0.70
2018-11-29T01:59:07.887Z,-0.70
2018-11-29T02:01:36.022Z,-0.70
2018-11-29T02:04:04.621Z,-0.70
2018-11-29T02:06:32.745Z,-0.70
2018-11-29T02:09:00.857Z,-0.70
2018-11-29T02:11:28.991Z,-0.70
2018-11-29T02:13:57.122Z,-0.70
2018-11-29T02:16:25.224Z,-0.70
2018-11-29T02:18:53.315Z,-0.70
2018-11-29T02:21:21.709Z,-0.70
2018-11-29T02:23:49.560Z,-0.70
2018-11-29T02:26:17.627Z,-0.60
2018-11-29T02:28:47.356Z,-0.70
2018-11-29T02:31:15.788Z,-0.70
2018-11-29T02:33:43.925Z,-0.70
2018-11-29T02:36:12.033Z,-0.70
2018-11-29T02:38:40.565Z,-0.70
2018-11-29T02:41:08.681Z,-0.70
2018-11-29T02:43:36.821Z,-0.60
2018-11-29T02:46:05.017Z,-0.60
2018-11-29T02:48:33.166Z,-0.60
2018-11-29T02:51:01.335Z,-0.60
2018-11-29T02:53:29.461Z,-0.50
2018-11-29T02:55:57.572Z,-0.60
2018-11-29T02:58:25.690Z,-0.60
2018-11-29T03:00:53.786Z,-0.50
2018-11-29T03:03:21.888Z,-0.50
2018-11-29T03:05:49.992Z,-0.50
2018-11-29T03:08:18.117Z,-0.50
2018-11-29T03:10:46.256Z,-0.40
2018-11-29T03:13:14.362Z,-0.40
2018-11-29T03:15:42.446Z,-0.40
2018-11-29T03:18:10.547Z,-0.40
2018-11-29T03:20:38.704Z,-0.50
2018-11-29T03:23:06.792Z,-0.40
2018-11-29T03:25:34.874Z,-0.50
2018-11-29T03:28:03.005Z,-0.50
2018-11-29T03:30:31.144Z,-0.50
2018-11-29T03:32:59.254Z,-0.50
2018-11-29T03:35:27.340Z,-0.50
2018-11-29T03:37:55.419Z,-0.50
2018-11-29T03:40:23.901Z,-0.50
2018-11-29T03:42:52.416Z,-0.50
2018-11-29T03:45:20.537Z,-0.50
2018-11-29T03:47:48.626Z,-0.50
2018-11-29T03:50:17.665Z,-0.60
2018-11-29T03:52:46.216Z,-0.60
2018-11-29T03:55:14.329Z,-0.50
2018-11-29T03:57:42.434Z,-0.50
2018-11-29T04:00:12.845Z,-0.50
2018-11-29T04:02:40.996Z,-0.50
2018-11-29T04:05:09.132Z,-0.40
2018-11-29T04:07:37.229Z,-0.40
2018-11-29T04:10:07.113Z,-0.40
2018-11-29T04:12:35.201Z,-0.50
2018-11-29T04:15:03.352Z,-0.40
2018-11-29T04:17:31.449Z,-0.40
2018-11-29T04:19:59.531Z,-0.30
2018-11-29T04:22:27.590Z,-0.40
2018-11-29T04:24:55.714Z,-0.30
2018-11-29T04:27:23.803Z,-0.40
2018-11-29T04:29:51.925Z,-0.30
2018-11-29T04:32:20.127Z,-0.30
2018-11-29T04:34:48.267Z,-0.30
2018-11-29T04:37:16.416Z,-0.40
2018-11-29T04:39:51.301Z,-0.40
2018-11-29T04:42:19.426Z,-0.40
2018-11-29T04:44:47.540Z,-0.40
2018-11-29T04:47:16.444Z,-0.50
2018-11-29T04:49:44.678Z,-0.40
2018-11-29T04:52:12.834Z,-0.40
2018-11-29T04:54:40.933Z,-0.40
2018-11-29T04:57:09.048Z,-0.40
2018-11-29T04:59:37.149Z,-0.40
2018-11-29T05:02:05.945Z,-0.40
2018-11-29T05:04:34.113Z,-0.40
2018-11-29T05:07:02.188Z,-0.50
2018-11-29T05:09:30.309Z,-0.40
2018-11-29T05:11:58.699Z,-0.50
2018-11-29T05:14:26.825Z,-0.40
2018-11-29T05:16:55.036Z,-0.40
2018-11-29T05:19:23.417Z,-0.40
2018-11-29T05:21:58.475Z,-0.30
2018-11-29T05:24:26.684Z,-0.40
2018-11-29T05:26:54.830Z,-0.40
2018-11-29T05:29:22.946Z,-0.40
2018-11-29T05:31:51.099Z,-0.40
2018-11-29T05:34:19.245Z,-0.30
2018-11-29T05:36:47.426Z,-0.40
2018-11-29T05:39:15.712Z,-0.30
2018-11-29T05:41:43.792Z,-0.30
2018-11-29T05:44:11.897Z,-0.30
2018-11-29T05:46:40.047Z,-0.30
2018-11-29T05:49:08.162Z,-0.30
2018-11-29T05:51:36.273Z,-0.30
2018-11-29T05:54:04.682Z,-0.30
2018-11-29T05:56:32.841Z,-0.20
2018-11-29T05:59:00.948Z,-0.20
2018-11-29T06:01:32.526Z,-0.20
2018-11-29T06:04:00.614Z,-0.20
2018-11-29T06:06:28.701Z,-0.20
2018-11-29T06:08:56.827Z,-0.20
2018-11-29T06:11:24.945Z,-0.20
2018-11-29T06:13:53.422Z,-0.10
2018-11-29T06:16:21.519Z,-0.10
2018-11-29T06:18:49.630Z,-0.10
2018-11-29T06:21:17.743Z,-0.10
2018-11-29T06:23:45.873Z,-0.10
2018-11-29T06:26:14.007Z,-0.20
2018-11-29T06:28:42.161Z,-0.20
2018-11-29T06:31:10.330Z,-0.20
2018-11-29T06:33:38.473Z,-0.20
2018-11-29T06:36:06.565Z,-0.30
2018-11-29T06:38:34.715Z,-0.30
2018-11-29T06:41:02.809Z,-0.30
2018-11-29T06:43:30.943Z,-0.30
2018-11-29T06:45:59.080Z,-0.30
2018-11-29T06:48:27.303Z,-0.30
2018-11-29T06:50:55.585Z,-0.30
2018-11-29T06:53:35.907Z,-0.20
2018-11-29T06:56:04.031Z,-0.20
2018-11-29T06:58:32.155Z,-0.30
2018-11-29T07:01:00.345Z,-0.30
2018-11-29T07:03:28.920Z,-0.30
2018-11-29T07:05:56.537Z,-0.30
2018-11-29T07:08:24.604Z,-0.30
2018-11-29T07:10:52.884Z,-0.30
2018-11-29T07:13:20.988Z,-0.30
2018-11-29T07:15:49.159Z,-0.30
2018-11-29T07:18:17.250Z,-0.40
2018-11-29T07:20:55.567Z,-0.30
2018-11-29T07:23:23.699Z,-0.30
2018-11-29T07:25:52.054Z,-0.30
2018-11-29T07:28:21.999Z,-0.30
2018-11-29T07:30:50.175Z,-0.30
2018-11-29T07:33:18.301Z,-0.20
2018-11-29T07:35:46.438Z,-0.30
2018-11-29T07:38:14.524Z,-0.20
2018-11-29T07:40:42.609Z,-0.20
2018-11-29T07:43:10.746Z,-0.10
2018-11-29T07:45:39.071Z,-0.10
2018-11-29T07:48:07.141Z,-0.10
2018-11-29T07:50:35.238Z,0.00
2018-11-29T07:53:03.342Z,0.00
2018-11-29T07:55:31.489Z,0.00
2018-11-29T07:57:59.595Z,0.00
2018-11-29T08:00:27.931Z,0.00
2018-11-29T08:02:56.108Z,0.10
2018-11-29T08:05:24.278Z,0.10
2018-11-29T08:07:52.463Z,0.20
2018-11-29T08:10:20.837Z,0.10
2018-11-29T08:12:49.180Z,0.20
2018-11-29T08:15:18.640Z,0.10
2018-11-29T08:17:46.753Z,0.10
2018-11-29T08:20:17.092Z,0.10
2018-11-29T08:22:45.219Z,0.10
2018-11-29T08:25:13.292Z,0.10
2018-11-29T08:27:41.410Z,0.20
2018-11-29T08:30:12.537Z,0.20
2018-11-29T08:32:40.827Z,0.30
2018-11-29T08:35:10.024Z,0.30
2018-11-29T08:37:38.577Z,0.50
2018-11-29T08:40:12.911Z,0.40
2018-11-29T08:42:41.017Z,0.60
2018-11-29T08:45:10.273Z,0.60
2018-11-29T08:47:38.510Z,0.60
2018-11-29T08:50:09.461Z,0.70
2018-11-29T08:52:37.947Z,0.80
2018-11-29T08:55:08.189Z,0.90
2018-11-29T08:57:36.438Z,1.10
2018-11-29T09:00:08.028Z,1.20
2018-11-29T09:02:36.157Z,1.30
2018-11-29T09:05:04.376Z,1.20
2018-11-29T09:07:32.504Z,1.20
2018-11-29T09:10:00.766Z,1.10
2018-11-29T09:13:53.433Z,1.20
2018-11-29T09:16:21.534Z,1.10
2018-11-29T09:18:49.679Z,1.10
2018-11-29T09:21:17.832Z,1.10
2018-11-29T09:23:45.955Z,1.10
2018-11-29T09:26:14.058Z,1.10
2018-11-29T09:28:42.249Z,1.20
2018-11-29T09:31:10.377Z,1.20
2018-11-29T09:33:38.465Z,1.30
2018-11-29T09:36:06.590Z,1.20
2018-11-29T09:38:34.784Z,1.20
2018-11-29T09:41:02.857Z,1.30
2018-11-29T09:43:30.996Z,1.40
2018-11-29T09:45:59.129Z,1.40
2018-11-29T09:48:28.429Z,1.40
2018-11-29T09:50:55.414Z,1.50
2018-11-29T09:53:23.487Z,1.50
2018-11-29T09:55:51.628Z,1.50
2018-11-29T09:58:19.764Z,1.60
2018-11-29T10:00:47.938Z,1.60
2018-11-29T10:03:16.591Z,1.60
2018-11-29T10:05:46.180Z,1.60
2018-11-29T10:08:16.302Z,1.60
2018-11-29T10:10:44.414Z,1.60
2018-11-29T10:13:12.525Z,1.60
2018-11-29T10:15:40.639Z,1.60
2018-11-29T10:18:09.953Z,1.50
2018-11-29T10:20:38.088Z,1.50
2018-11-29T10:23:07.448Z,1.50
2018-11-29T10:25:36.640Z,1.50
2018-11-29T10:28:09.621Z,1.40
2018-11-29T10:30:57.384Z,1.40
2018-11-29T10:33:25.502Z,1.60
2018-11-29T10:35:58.983Z,1.70
2018-11-29T10:38:21.736Z,1.80
2018-11-29T10:40:49.845Z,1.90
2018-11-29T10:43:17.973Z,2.00
2018-11-29T10:45:46.123Z,2.20
2018-11-29T10:48:15.831Z,2.20
2018-11-29T10:50:43.906Z,2.20
2018-11-29T10:53:12.000Z,2.30
2018-11-29T10:55:40.119Z,2.30
2018-11-29T10:58:08.228Z,2.30
2018-11-29T11:00:41.745Z,2.40
2018-11-29T11:03:15.254Z,2.40
2018-11-29T11:05:43.355Z,2.40
2018-11-29T11:08:11.518Z,2.40
2018-11-29T11:10:40.226Z,2.40
2018-11-29T11:13:08.377Z,2.50
2018-11-29T11:15:36.772Z,2.40
2018-11-29T11:18:05.672Z,2.40
2018-11-29T11:20:33.771Z,2.40
2018-11-29T11:23:01.867Z,2.40
2018-11-29T11:25:29.979Z,2.50
2018-11-29T11:27:58.057Z,2.50
2018-11-29T11:30:26.178Z,2.50
2018-11-29T11:32:54.298Z,2.50
2018-11-29T11:35:22.448Z,2.60
2018-11-29T11:37:50.542Z,2.70
2018-11-29T11:40:18.673Z,2.70
2018-11-29T11:42:47.133Z,2.70
2018-11-29T11:45:16.309Z,2.70
2018-11-29T11:47:44.413Z,2.70
2018-11-29T11:50:21.524Z,2.80
2018-11-29T11:52:50.106Z,2.80
2018-11-29T11:55:19.308Z,2.80
2018-11-29T11:57:47.010Z,2.70
2018-11-29T12:00:24.388Z,2.80
2018-11-29T12:03:00.665Z,2.90
2018-11-29T12:05:28.789Z,2.90
2018-11-29T12:07:56.887Z,2.90
2018-11-29T12:10:25.043Z,3.00
2018-11-29T12:12:53.125Z,2.90
2018-11-29T12:15:21.248Z,2.90
2018-11-29T12:17:49.351Z,3.00
2018-11-29T12:20:18.470Z,3.10
2018-11-29T12:22:46.613Z,3.10
2018-11-29T12:25:15.710Z,3.20
2018-11-29T12:27:43.786Z,3.30
2018-11-29T12:30:19.210Z,3.30
2018-11-29T12:32:47.318Z,3.30
2018-11-29T12:35:15.607Z,3.20
2018-11-29T12:37:43.690Z,3.30
2018-11-29T12:40:15.711Z,3.20
2018-11-29T12:42:43.815Z,3.30
2018-11-29T12:45:13.650Z,3.30
2018-11-29T12:47:41.871Z,3.20
2018-11-29T12:50:19.606Z,3.20
2018-11-29T12:52:47.690Z,3.20
2018-11-29T12:55:16.953Z,3.10
2018-11-29T12:57:45.145Z,3.10
2018-11-29T13:00:17.282Z,3.10
2018-11-29T13:02:49.541Z,3.20
2018-11-29T13:05:17.634Z,3.20
2018-11-29T13:07:45.726Z,3.30
2018-11-29T13:10:15.737Z,3.30
2018-11-29T13:12:43.850Z,3.30
2018-11-29T13:15:16.234Z,3.40
2018-11-29T13:17:44.217Z,3.40
2018-11-29T13:20:14.457Z,3.40
2018-11-29T13:22:42.522Z,3.40
2018-11-29T13:25:20.515Z,3.50
2018-11-29T13:27:48.629Z,3.60
2018-11-29T13:30:21.507Z,3.60
2018-11-29T13:32:53.646Z,3.70
2018-11-29T13:35:23.907Z,3.70
2018-11-29T13:37:54.218Z,3.60
2018-11-29T13:40:22.419Z,3.60
2018-11-29T13:42:50.508Z,3.60
2018-11-29T13:45:18.618Z,3.60
2018-11-29T13:47:46.700Z,3.60
2018-11-29T13:50:15.887Z,3.60
2018-11-29T13:52:44.180Z,3.50
2018-11-29T13:55:13.283Z,3.50
2018-11-29T13:57:42.508Z,3.50
2018-11-29T14:00:13.977Z,3.40
2018-11-29T14:02:42.278Z,3.50
2018-11-29T14:05:10.825Z,3.40
2018-11-29T14:07:39.136Z,3.40
2018-11-29T14:10:10.944Z,3.30
2018-11-29T14:12:39.098Z,3.30
2018-11-29T14:15:11.010Z,3.30
2018-11-29T14:17:39.146Z,3.30
2018-11-29T14:20:08.321Z,3.20
2018-11-29T14:22:36.411Z,3.20
2018-11-29T14:25:08.419Z,3.20
2018-11-29T14:27:36.604Z,3.20
2018-11-29T14:30:08.336Z,3.20
2018-11-29T14:32:36.492Z,3.20
2018-11-29T14:35:05.302Z,3.20
2018-11-29T14:37:33.519Z,3.20
2018-11-29T14:40:01.624Z,3.20
2018-11-29T14:42:29.755Z,3.10
2018-11-29T14:44:57.863Z,3.10
2018-11-29T14:47:25.984Z,3.10
2018-11-29T14:49:54.048Z,3.10
2018-11-29T14:52:22.233Z,3.10
2018-11-29T14:54:50.363Z,3.10
2018-11-29T14:57:18.595Z,3.10
2018-11-29T14:59:46.694Z,3.10
2018-11-29T15:02:14.813Z,3.10
2018-11-29T15:04:42.980Z,3.10
2018-11-29T15:07:11.066Z,3.10
2018-11-29T15:09:39.172Z,3.00
2018-11-29T15:12:07.292Z,3.00
2018-11-29T15:14:35.874Z,3.00
2018-11-29T15:17:03.980Z,3.00
2018-11-29T15:19:32.098Z,3.00
2018-11-29T15:22:00.292Z,3.00
2018-11-29T15:24:28.511Z,3.00
2018-11-29T15:26:56.668Z,2.90
2018-11-29T15:29:24.943Z,2.90
2018-11-29T15:31:53.080Z,2.90
2018-11-29T15:34:21.278Z,2.90
2018-11-29T15:36:49.348Z,2.90
2018-11-29T15:39:17.540Z,3.00
2018-11-29T15:41:45.714Z,3.00
2018-11-29T15:44:13.989Z,3.00
2018-11-29T15:46:42.251Z,3.00
2018-11-29T15:49:10.519Z,2.90
2018-11-29T15:51:38.690Z,2.90
2018-11-29T15:54:11.490Z,2.90
2018-11-29T15:56:39.877Z,2.90
2018-11-29T15:59:08.222Z,2.90
2018-11-29T16:01:37.494Z,2.90
2018-11-29T16:04:06.346Z,2.90
2018-11-29T16:06:34.570Z,2.80
2018-11-29T16:09:02.764Z,2.80
2018-11-29T16:11:31.250Z,2.80
2018-11-29T16:13:59.716Z,2.80
2018-11-29T16:16:27.994Z,2.70
2018-11-29T16:18:56.818Z,2.70
2018-11-29T16:21:25.187Z,2.70
2018-11-29T16:23:53.309Z,2.70
2018-11-29T16:26:21.389Z,2.70
2018-11-29T16:28:49.464Z,2.60
2018-11-29T16:31:17.583Z,2.60
2018-11-29T16:33:45.626Z,2.60
2018-11-29T16:36:13.755Z,2.60
2018-11-29T16:38:41.909Z,2.60
2018-11-29T16:41:10.014Z,2.60
2018-11-29T16:43:38.090Z,2.50
2018-11-29T16:46:06.244Z,2.50
2018-11-29T16:48:34.488Z,2.50
2018-11-29T16:51:02.633Z,2.40
2018-11-29T16:53:30.730Z,2.40
2018-11-29T16:55:58.802Z,2.40
2018-11-29T16:58:28.642Z,2.40
2018-11-29T17:00:57.603Z,2.40
2018-11-29T17:03:25.734Z,2.40
2018-11-29T17:05:53.856Z,2.40
2018-11-29T17:08:22.020Z,2.40
2018-11-29T17:10:50.229Z,2.40
2018-11-29T17:13:19.494Z,2.30
2018-11-29T17:15:47.589Z,2.40
2018-11-29T17:18:15.702Z,2.40
2018-11-29T17:20:43.787Z,2.30
2018-11-29T17:23:12.415Z,4.30
2018-11-29T17:25:40.556Z,2.30
2018-11-29T17:28:08.831Z,2.30
2018-11-29T17:30:37.597Z,2.30
2018-11-29T17:33:06.734Z,2.20
2018-11-29T17:35:34.967Z,2.30
2018-11-29T17:38:03.144Z,2.30
2018-11-29T17:40:31.381Z,2.20
2018-11-29T17:42:59.494Z,2.20
2018-11-29T17:45:28.635Z,2.20
2018-11-29T17:48:00.179Z,2.10
2018-11-29T17:50:32.483Z,2.20
2018-11-29T17:53:00.613Z,2.20
2018-11-29T17:55:29.570Z,2.20
2018-11-29T17:57:57.782Z,2.20
2018-11-29T18:00:28.120Z,2.20
2018-11-29T18:02:56.208Z,2.20
2018-11-29T18:05:24.296Z,2.20
2018-11-29T18:07:52.897Z,2.20
2018-11-29T18:10:23.363Z,2.20
2018-11-29T18:12:54.034Z,2.10
2018-11-29T18:15:23.787Z,2.10
2018-11-29T18:17:51.908Z,2.10
2018-11-29T18:20:19.998Z,2.20
2018-11-29T18:22:48.165Z,2.10
2018-11-29T18:25:16.859Z,2.10
2018-11-29T18:27:46.351Z,2.00
2018-11-29T18:30:15.663Z,2.10
2018-11-29T18:32:43.825Z,2.10
2018-11-29T18:35:12.714Z,2.00
2018-11-29T18:37:40.984Z,2.00
2018-11-29T18:40:13.213Z,2.00
2018-11-29T18:42:41.339Z,2.00
2018-11-29T18:45:14.793Z,2.00
2018-11-29T18:47:43.828Z,2.00
2018-11-29T18:50:16.576Z,2.00
2018-11-29T18:52:44.725Z,2.00
2018-11-29T18:55:12.816Z,2.00
2018-11-29T18:57:40.922Z,2.00
2018-11-29T19:00:42.312Z,1.90
2018-11-29T19:03:10.422Z,1.90
2018-11-29T19:05:38.521Z,1.90
2018-11-29T19:08:08.433Z,1.90
2018-11-29T19:10:36.640Z,1.90
2018-11-29T19:13:10.110Z,1.90
2018-11-29T19:15:38.209Z,1.90
2018-11-29T19:18:10.513Z,1.80
2018-11-29T19:20:36.450Z,1.90
2018-11-29T19:23:04.939Z,1.80
2018-11-29T19:25:33.257Z,1.80
2018-11-29T19:28:01.732Z,1.80
2018-11-29T19:30:30.574Z,1.80
2018-11-29T19:33:07.137Z,1.80
2018-11-29T19:35:35.422Z,1.70
2018-11-29T19:38:03.547Z,1.80
2018-11-29T19:40:31.778Z,1.70
2018-11-29T19:42:59.973Z,1.70
2018-11-29T19:45:28.170Z,1.80
2018-11-29T19:47:56.310Z,1.70
2018-11-29T19:50:24.499Z,1.80
2018-11-29T19:52:55.001Z,1.70
2018-11-29T19:55:25.505Z,1.70
2018-11-29T19:57:53.628Z,1.70
2018-11-29T20:00:21.982Z,1.70
2018-11-29T20:02:51.387Z,1.70
2018-11-29T20:05:19.674Z,1.70
2018-11-29T20:07:47.844Z,1.70
2018-11-29T20:10:17.157Z,1.70
2018-11-29T20:12:46.429Z,1.60
2018-11-29T20:15:17.099Z,1.60
2018-11-29T20:17:45.275Z,1.60
2018-11-29T20:20:13.426Z,1.60
2018-11-29T20:22:41.952Z,1.60
2018-11-29T20:25:15.038Z,1.60
2018-11-29T20:27:43.237Z,1.60
2018-11-29T20:30:14.633Z,1.60
2018-11-29T20:32:42.875Z,1.60
2018-11-29T20:35:11.496Z,1.60
2018-11-29T20:37:39.758Z,1.50
2018-11-29T20:40:27.347Z,1.50
2018-11-29T20:42:56.593Z,1.50
2018-11-29T20:45:30.075Z,1.50
2018-11-29T20:47:58.267Z,1.50
2018-11-29T20:50:27.893Z,1.50
2018-11-29T20:52:57.414Z,1.50
2018-11-29T20:55:27.806Z,1.50
2018-11-29T20:57:55.897Z,1.50
2018-11-29T21:00:23.974Z,1.50
2018-11-29T21:02:52.061Z,1.50
2018-11-29T21:05:21.200Z,1.50
2018-11-29T21:07:52.884Z,1.40
2018-11-29T21:10:24.828Z,1.50
2018-11-29T21:12:53.068Z,1.40
2018-11-29T21:15:21.494Z,1.40
2018-11-29T21:17:49.728Z,1.30
2018-11-29T21:20:19.273Z,1.30
2018-11-29T21:22:48.593Z,1.30
2018-11-29T21:25:18.032Z,1.20
2018-11-29T21:27:46.202Z,1.30
2018-11-29T21:30:16.097Z,1.20
2018-11-29T21:32:44.589Z,1.20
2018-11-29T21:35:14.903Z,1.20
2018-11-29T21:37:43.248Z,1.20
2018-11-29T21:40:14.212Z,1.20
2018-11-29T21:42:42.353Z,1.20
2018-11-29T21:45:10.477Z,1.30
2018-11-29T21:47:38.572Z,1.30
2018-11-29T21:50:07.622Z,1.30
2018-11-29T21:52:35.759Z,1.30
2018-11-29T21:55:04.201Z,1.30
2018-11-29T21:57:32.346Z,1.20
2018-11-29T22:00:00.440Z,1.20
2018-11-29T22:02:28.557Z,1.20
2018-11-29T22:04:56.651Z,1.20
2018-11-29T22:07:24.772Z,1.20
2018-11-29T22:09:52.842Z,1.30
2018-11-29T22:12:20.947Z,1.30
2018-11-29T22:14:50.419Z,1.30
2018-11-29T22:17:18.525Z,1.20
2018-11-29T22:19:46.990Z,1.20
2018-11-29T22:22:15.165Z,1.20
2018-11-29T22:24:43.312Z,1.20
2018-11-29T22:27:11.453Z,1.30
2018-11-29T22:29:39.592Z,1.20
2018-11-29T22:32:07.701Z,1.30
2018-11-29T22:34:35.803Z,1.30
2018-11-29T22:37:03.956Z,1.40
2018-11-29T22:39:33.298Z,1.30
2018-11-29T22:42:01.420Z,1.30
2018-11-29T22:44:29.581Z,1.30
2018-11-29T22:46:57.678Z,1.30
2018-11-29T22:49:25.798Z,1.30
2018-11-29T22:51:53.897Z,1.40
2018-11-29T22:54:22.016Z,1.30
2018-11-29T22:56:50.210Z,1.30
2018-11-29T22:59:18.427Z,1.30
2018-11-29T23:01:46.499Z,1.20
2018-11-29T23:04:14.656Z,1.20
2018-11-29T23:06:42.753Z,1.30
2018-11-29T23:09:10.864Z,1.30
2018-11-29T23:11:38.975Z,1.40
2018-11-29T23:14:07.108Z,1.40
2018-11-29T23:16:35.258Z,1.40
2018-11-29T23:19:03.356Z,1.30
2018-11-29T23:21:31.471Z,1.40
2018-11-29T23:23:59.565Z,1.40
2018-11-29T23:26:27.676Z,1.40
2018-11-29T23:28:55.912Z,1.40
2018-11-29T23:31:24.234Z,1.30
2018-11-29T23:33:52.345Z,1.30
2018-11-29T23:36:20.411Z,1.40
2018-11-29T23:38:48.518Z,1.40
2018-11-29T23:41:16.576Z,1.40
2018-11-29T23:43:44.675Z,1.40
2018-11-29T23:46:12.791Z,1.40
2018-11-29T23:48:40.887Z,1.40
2018-11-29T23:51:08.973Z,1.40
2018-11-29T23:53:37.069Z,1.40
2018-11-29T23:56:05.172Z,1.40
2018-11-29T23:58:33.615Z,1.40
